createdAt,value
2019-03-11T00:00:07.077Z,6.36
2019-03-11T00:01:06.993Z,6.49
2019-03-11T00:02:06.907Z,6.45
2019-03-11T00:03:06.821Z,6.48
2019-03-11T00:04:07.518Z,6.51
2019-03-11T00:05:06.646Z,6.48
2019-03-11T00:06:06.562Z,6.51
2019-03-11T00:07:06.471Z,6.56
2019-03-11T00:08:06.388Z,6.49
2019-03-11T00:09:06.297Z,6.45
2019-03-11T00:10:06.226Z,6.46
2019-03-11T00:11:06.125Z,6.45
2019-03-11T00:12:06.039Z,6.49
2019-03-11T00:13:05.960Z,6.48
2019-03-11T00:14:05.866Z,6.51
2019-03-11T00:15:05.798Z,6.48
2019-03-11T00:16:05.694Z,6.51
2019-03-11T00:17:05.599Z,6.52
2019-03-11T00:18:05.527Z,6.46
2019-03-11T00:19:05.432Z,6.44
2019-03-11T00:20:05.346Z,6.44
2019-03-11T00:21:05.260Z,6.41
2019-03-11T00:22:05.193Z,6.38
2019-03-11T00:23:13.744Z,6.51
2019-03-11T00:25:10.382Z,6.56
2019-03-11T00:26:10.285Z,6.46
2019-03-11T00:28:15.590Z,6.57
2019-03-11T00:29:15.489Z,6.57
2019-03-11T00:31:20.804Z,6.56
2019-03-11T00:32:20.714Z,6.42
2019-03-11T00:34:14.965Z,6.51
2019-03-11T00:35:14.849Z,6.51
2019-03-11T00:36:14.764Z,6.48
2019-03-11T00:37:14.682Z,6.45
2019-03-11T00:38:14.593Z,6.51
2019-03-11T00:39:14.505Z,6.44
2019-03-11T00:40:14.412Z,6.39
2019-03-11T00:41:14.328Z,6.45
2019-03-11T00:42:14.239Z,6.46
2019-03-11T00:43:14.158Z,6.44
2019-03-11T00:44:14.073Z,6.38
2019-03-11T00:45:13.993Z,6.36
2019-03-11T00:46:13.901Z,6.33
2019-03-11T00:47:13.812Z,6.35
2019-03-11T00:48:13.723Z,6.35
2019-03-11T00:49:13.641Z,6.31
2019-03-11T00:50:13.553Z,6.36
2019-03-11T00:51:13.465Z,6.51
2019-03-11T00:52:13.375Z,6.39
2019-03-11T00:53:13.293Z,6.54
2019-03-11T00:54:13.207Z,6.52
2019-03-11T00:55:13.127Z,6.48
2019-03-11T00:56:13.034Z,6.49
2019-03-11T00:57:12.948Z,6.51
2019-03-11T00:58:12.867Z,6.54
2019-03-11T00:59:12.822Z,6.49
2019-03-11T01:00:12.687Z,6.49
2019-03-11T01:01:12.603Z,6.64
2019-03-11T01:02:12.517Z,6.59
2019-03-11T01:03:12.427Z,6.60
2019-03-11T01:04:12.338Z,6.60
2019-03-11T01:05:12.251Z,6.74
2019-03-11T01:06:12.167Z,6.67
2019-03-11T01:07:12.083Z,6.57
2019-03-11T01:08:12.001Z,6.57
2019-03-11T01:09:11.910Z,6.57
2019-03-11T01:10:11.823Z,6.62
2019-03-11T01:11:11.732Z,6.66
2019-03-11T01:12:11.646Z,6.64
2019-03-11T01:13:11.565Z,6.59
2019-03-11T01:14:11.477Z,6.62
2019-03-11T01:15:11.387Z,6.60
2019-03-11T01:16:11.310Z,6.67
2019-03-11T01:17:11.216Z,6.62
2019-03-11T01:18:11.238Z,6.59
2019-03-11T01:19:11.046Z,6.66
2019-03-11T01:20:10.961Z,6.57
2019-03-11T01:21:10.873Z,6.64
2019-03-11T01:22:10.785Z,6.62
2019-03-11T01:23:10.701Z,6.63
2019-03-11T01:24:10.614Z,6.54
2019-03-11T01:25:10.529Z,6.57
2019-03-11T01:26:10.442Z,6.56
2019-03-11T01:27:10.356Z,6.59
2019-03-11T01:28:10.270Z,6.56
2019-03-11T01:29:10.207Z,6.57
2019-03-11T01:30:10.109Z,6.54
2019-03-11T01:31:10.011Z,6.49
2019-03-11T01:32:09.921Z,6.46
2019-03-11T01:33:09.838Z,6.42
2019-03-11T01:34:09.756Z,6.54
2019-03-11T01:35:09.661Z,6.49
2019-03-11T01:36:09.576Z,6.48
2019-03-11T01:37:09.490Z,6.45
2019-03-11T01:38:09.399Z,6.52
2019-03-11T01:39:09.318Z,6.52
2019-03-11T01:40:09.228Z,6.66
2019-03-11T01:41:09.141Z,6.59
2019-03-11T01:42:09.065Z,6.52
2019-03-11T01:43:08.975Z,6.67
2019-03-11T01:44:08.881Z,6.62
2019-03-11T01:45:08.803Z,6.62
2019-03-11T01:46:08.712Z,6.62
2019-03-11T01:47:08.628Z,6.60
2019-03-11T01:48:08.538Z,6.62
2019-03-11T01:49:08.451Z,6.64
2019-03-11T01:50:08.365Z,6.57
2019-03-11T01:51:08.282Z,6.64
2019-03-11T01:52:08.196Z,6.67
2019-03-11T01:53:08.106Z,6.66
2019-03-11T01:54:08.023Z,6.67
2019-03-11T01:55:07.938Z,6.67
2019-03-11T01:56:07.848Z,6.63
2019-03-11T01:57:07.759Z,6.62
2019-03-11T01:58:07.677Z,6.56
2019-03-11T01:59:07.591Z,6.51
2019-03-11T02:00:07.504Z,6.59
2019-03-11T02:01:07.423Z,6.62
2019-03-11T02:02:07.331Z,6.54
2019-03-11T02:03:07.255Z,6.45
2019-03-11T02:04:07.197Z,6.51
2019-03-11T02:05:07.074Z,6.52
2019-03-11T02:06:06.996Z,6.49
2019-03-11T02:07:06.901Z,6.51
2019-03-11T02:08:06.810Z,6.49
2019-03-11T02:09:06.724Z,6.45
2019-03-11T02:10:06.637Z,6.46
2019-03-11T02:11:06.555Z,6.51
2019-03-11T02:12:06.465Z,6.48
2019-03-11T02:13:06.379Z,6.44
2019-03-11T02:14:06.294Z,6.35
2019-03-11T02:15:06.207Z,6.42
2019-03-11T02:16:06.122Z,6.48
2019-03-11T02:17:06.037Z,6.41
2019-03-11T02:18:05.948Z,6.38
2019-03-11T02:19:05.862Z,6.35
2019-03-11T02:20:05.777Z,6.30
2019-03-11T02:21:05.690Z,6.27
2019-03-11T02:22:05.604Z,6.35
2019-03-11T02:23:05.518Z,6.48
2019-03-11T02:24:05.433Z,6.39
2019-03-11T02:25:05.341Z,6.48
2019-03-11T02:26:05.256Z,6.51
2019-03-11T02:27:05.173Z,6.46
2019-03-11T02:28:05.083Z,6.60
2019-03-11T02:29:05.002Z,6.42
2019-03-11T02:30:04.912Z,6.48
2019-03-11T02:31:04.825Z,6.44
2019-03-11T02:32:04.755Z,6.35
2019-03-11T02:33:04.651Z,6.31
2019-03-11T02:34:04.567Z,6.33
2019-03-11T02:35:04.480Z,6.20
2019-03-11T02:36:04.396Z,6.28
2019-03-11T02:37:04.306Z,6.19
2019-03-11T02:38:04.221Z,6.24
2019-03-11T02:39:04.135Z,6.24
2019-03-11T02:40:04.047Z,6.31
2019-03-11T02:41:03.960Z,6.38
2019-03-11T02:42:03.875Z,6.28
2019-03-11T02:43:03.832Z,6.38
2019-03-11T02:44:03.723Z,6.35
2019-03-11T02:45:03.627Z,6.31
2019-03-11T02:46:03.532Z,6.35
2019-03-11T02:47:03.444Z,6.33
2019-03-11T02:48:03.357Z,6.35
2019-03-11T02:49:03.406Z,6.28
2019-03-11T02:50:03.186Z,6.26
2019-03-11T02:51:03.098Z,6.31
2019-03-11T02:52:03.036Z,6.33
2019-03-11T02:53:02.926Z,6.35
2019-03-11T02:54:02.839Z,6.22
2019-03-11T02:55:02.785Z,6.26
2019-03-11T02:56:02.663Z,6.26
2019-03-11T02:57:02.582Z,6.33
2019-03-11T02:58:02.497Z,6.26
2019-03-11T02:59:02.407Z,6.33
2019-03-11T03:00:02.318Z,6.28
2019-03-11T03:01:02.229Z,6.20
2019-03-11T03:02:02.150Z,6.33
2019-03-11T03:03:02.076Z,6.30
2019-03-11T03:04:01.988Z,6.39
2019-03-11T03:05:01.893Z,6.36
2019-03-11T03:06:01.799Z,6.31
2019-03-11T03:07:01.715Z,6.31
2019-03-11T03:08:01.628Z,6.38
2019-03-11T03:09:01.538Z,6.33
2019-03-11T03:10:01.493Z,6.33
2019-03-11T03:11:01.369Z,6.20
2019-03-11T03:12:01.284Z,6.26
2019-03-11T03:13:01.198Z,6.27
2019-03-11T03:14:01.112Z,6.31
2019-03-11T03:15:01.023Z,6.31
2019-03-11T03:16:00.946Z,6.33
2019-03-11T03:17:00.859Z,6.24
2019-03-11T03:18:00.761Z,6.17
2019-03-11T03:19:00.680Z,6.22
2019-03-11T03:20:00.584Z,6.28
2019-03-11T03:21:00.503Z,6.20
2019-03-11T03:22:00.419Z,6.24
2019-03-11T03:23:00.332Z,6.22
2019-03-11T03:24:00.245Z,6.30
2019-03-11T03:25:00.457Z,6.39
2019-03-11T03:26:00.070Z,6.39
2019-03-11T03:26:59.991Z,6.36
2019-03-11T03:27:59.971Z,6.31
2019-03-11T03:28:59.819Z,6.44
2019-03-11T03:29:59.727Z,6.36
2019-03-11T03:30:59.657Z,6.46
2019-03-11T03:31:59.552Z,6.41
2019-03-11T03:32:59.470Z,6.39
2019-03-11T03:33:59.383Z,6.36
2019-03-11T03:34:59.295Z,6.46
2019-03-11T03:35:59.231Z,6.36
2019-03-11T03:36:59.119Z,6.33
2019-03-11T03:37:59.036Z,6.31
2019-03-11T03:38:58.951Z,6.54
2019-03-11T03:39:58.863Z,6.45
2019-03-11T03:40:58.776Z,6.52
2019-03-11T03:41:58.688Z,6.56
2019-03-11T03:42:58.766Z,6.45
2019-03-11T03:43:58.517Z,6.48
2019-03-11T03:44:58.432Z,6.51
2019-03-11T03:45:58.341Z,6.49
2019-03-11T03:46:58.254Z,6.46
2019-03-11T03:47:58.170Z,6.45
2019-03-11T03:48:58.085Z,6.52
2019-03-11T03:49:58.000Z,6.48
2019-03-11T03:50:57.912Z,6.52
2019-03-11T03:51:57.825Z,6.56
2019-03-11T03:52:57.738Z,6.46
2019-03-11T03:53:57.656Z,6.44
2019-03-11T03:54:57.568Z,6.48
2019-03-11T03:55:57.479Z,6.41
2019-03-11T03:56:57.391Z,6.46
2019-03-11T03:57:57.319Z,6.51
2019-03-11T03:58:57.226Z,6.36
2019-03-11T03:59:57.136Z,6.45
2019-03-11T04:00:57.051Z,6.48
2019-03-11T04:01:56.964Z,6.52
2019-03-11T04:02:56.878Z,6.51
2019-03-11T04:03:56.790Z,6.57
2019-03-11T04:04:56.704Z,6.42
2019-03-11T04:05:56.616Z,6.59
2019-03-11T04:06:56.545Z,6.59
2019-03-11T04:07:56.445Z,6.52
2019-03-11T04:08:56.359Z,6.57
2019-03-11T04:09:56.271Z,6.56
2019-03-11T04:10:56.181Z,6.60
2019-03-11T04:11:56.097Z,6.63
2019-03-11T04:12:56.010Z,6.57
2019-03-11T04:13:55.925Z,6.57
2019-03-11T04:14:55.886Z,6.54
2019-03-11T04:15:55.755Z,6.46
2019-03-11T04:16:55.666Z,6.49
2019-03-11T04:17:55.578Z,6.41
2019-03-11T04:18:55.499Z,6.56
2019-03-11T04:19:55.408Z,6.54
2019-03-11T04:20:55.324Z,6.52
2019-03-11T04:21:55.236Z,6.64
2019-03-11T04:22:55.152Z,6.63
2019-03-11T04:23:55.060Z,6.62
2019-03-11T04:24:54.977Z,6.59
2019-03-11T04:25:54.890Z,6.64
2019-03-11T04:26:54.815Z,6.56
2019-03-11T04:27:54.723Z,6.60
2019-03-11T04:28:54.630Z,6.57
2019-03-11T04:29:54.542Z,6.60
2019-03-11T04:30:54.459Z,6.64
2019-03-11T04:31:54.371Z,6.70
2019-03-11T04:32:54.288Z,6.62
2019-03-11T04:33:54.201Z,6.56
2019-03-11T04:34:54.114Z,6.63
2019-03-11T04:35:54.028Z,6.63
2019-03-11T04:36:53.944Z,6.70
2019-03-11T04:37:53.849Z,6.72
2019-03-11T04:38:53.768Z,6.72
2019-03-11T04:39:53.682Z,6.67
2019-03-11T04:40:53.596Z,6.70
2019-03-11T04:41:53.508Z,6.70
2019-03-11T04:42:53.427Z,6.70
2019-03-11T04:43:53.339Z,6.67
2019-03-11T04:44:53.251Z,6.66
2019-03-11T04:45:53.166Z,6.60
2019-03-11T04:46:53.080Z,6.63
2019-03-11T04:47:52.990Z,6.64
2019-03-11T04:48:52.907Z,6.67
2019-03-11T04:49:52.823Z,6.57
2019-03-11T04:50:52.736Z,6.60
2019-03-11T04:51:52.648Z,6.63
2019-03-11T04:52:52.563Z,6.62
2019-03-11T04:53:52.477Z,6.62
2019-03-11T04:54:52.392Z,6.62
2019-03-11T04:55:52.301Z,6.66
2019-03-11T04:56:52.220Z,6.64
2019-03-11T04:57:52.138Z,6.72
2019-03-11T04:58:52.050Z,6.69
2019-03-11T04:59:51.959Z,6.70
2019-03-11T05:00:51.877Z,6.70
2019-03-11T05:01:51.789Z,6.67
2019-03-11T05:02:51.709Z,6.69
2019-03-11T05:03:51.619Z,6.72
2019-03-11T05:04:51.529Z,6.77
2019-03-11T05:05:51.442Z,6.67
2019-03-11T05:06:51.360Z,6.69
2019-03-11T05:07:51.273Z,6.70
2019-03-11T05:08:51.186Z,6.74
2019-03-11T05:09:51.100Z,6.70
2019-03-11T05:10:51.014Z,6.70
2019-03-11T05:11:50.927Z,6.62
2019-03-11T05:12:50.845Z,6.62
2019-03-11T05:13:50.762Z,6.72
2019-03-11T05:14:50.671Z,6.67
2019-03-11T05:15:50.585Z,6.60
2019-03-11T05:16:50.498Z,6.72
2019-03-11T05:17:50.414Z,6.64
2019-03-11T05:18:50.331Z,6.74
2019-03-11T05:19:50.252Z,6.69
2019-03-11T05:20:50.153Z,6.74
2019-03-11T05:21:50.072Z,6.70
2019-03-11T05:22:49.986Z,6.67
2019-03-11T05:23:49.896Z,6.70
2019-03-11T05:24:49.809Z,6.74
2019-03-11T05:25:49.725Z,6.72
2019-03-11T05:26:49.636Z,6.64
2019-03-11T05:27:49.547Z,6.74
2019-03-11T05:28:49.622Z,6.67
2019-03-11T05:29:49.376Z,6.72
2019-03-11T05:30:49.294Z,6.70
2019-03-11T05:31:49.209Z,6.67
2019-03-11T05:32:49.125Z,6.57
2019-03-11T05:33:49.041Z,6.62
2019-03-11T05:34:48.959Z,6.64
2019-03-11T05:35:48.863Z,6.62
2019-03-11T05:36:48.777Z,6.62
2019-03-11T05:37:48.690Z,6.56
2019-03-11T05:38:48.605Z,6.56
2019-03-11T05:39:48.516Z,6.54
2019-03-11T05:40:48.434Z,6.59
2019-03-11T05:41:48.346Z,6.56
2019-03-11T05:42:48.266Z,6.49
2019-03-11T05:43:48.174Z,6.54
2019-03-11T05:44:48.089Z,6.52
2019-03-11T05:45:48.003Z,6.48
2019-03-11T05:46:47.914Z,6.46
2019-03-11T05:47:47.827Z,6.45
2019-03-11T05:48:47.743Z,6.45
2019-03-11T05:49:47.658Z,6.44
2019-03-11T05:50:47.572Z,6.35
2019-03-11T05:51:47.482Z,6.42
2019-03-11T05:52:47.400Z,6.48
2019-03-11T05:53:47.311Z,6.42
2019-03-11T05:54:47.222Z,6.48
2019-03-11T05:55:47.209Z,6.31
2019-03-11T05:56:47.053Z,6.52
2019-03-11T05:57:46.984Z,6.46
2019-03-11T05:58:46.880Z,6.51
2019-03-11T05:59:46.798Z,6.52
2019-03-11T06:00:46.708Z,6.52
2019-03-11T06:01:46.619Z,6.45
2019-03-11T06:02:46.532Z,6.33
2019-03-11T06:03:46.447Z,6.45
2019-03-11T06:04:46.398Z,6.36
2019-03-11T06:05:46.275Z,6.28
2019-03-11T06:06:46.191Z,6.28
2019-03-11T06:07:46.101Z,6.33
2019-03-11T06:08:46.015Z,6.31
2019-03-11T06:09:45.925Z,6.30
2019-03-11T06:10:45.843Z,6.39
2019-03-11T06:11:45.755Z,6.38
2019-03-11T06:12:45.667Z,6.38
2019-03-11T06:13:45.583Z,6.38
2019-03-11T06:14:45.495Z,6.38
2019-03-11T06:15:45.405Z,6.33
2019-03-11T06:16:45.336Z,6.38
2019-03-11T06:17:45.337Z,6.45
2019-03-11T06:18:45.189Z,6.35
2019-03-11T06:19:45.065Z,6.52
2019-03-11T06:20:44.976Z,6.49
2019-03-11T06:21:44.889Z,6.45
2019-03-11T06:22:44.803Z,6.48
2019-03-11T06:23:44.716Z,6.51
2019-03-11T06:24:44.632Z,6.46
2019-03-11T06:25:44.539Z,6.45
2019-03-11T06:26:44.461Z,6.48
2019-03-11T06:27:44.374Z,6.49
2019-03-11T06:28:44.286Z,6.39
2019-03-11T06:29:44.193Z,6.39
2019-03-11T06:30:44.123Z,6.36
2019-03-11T06:31:44.023Z,6.30
2019-03-11T06:32:43.955Z,6.33
2019-03-11T06:33:43.855Z,6.39
2019-03-11T06:34:43.767Z,6.33
2019-03-11T06:35:43.679Z,6.39
2019-03-11T06:36:43.594Z,6.19
2019-03-11T06:37:43.507Z,6.28
2019-03-11T06:38:43.421Z,6.20
2019-03-11T06:39:43.337Z,6.09
2019-03-11T06:40:45.699Z,6.11
2019-03-11T06:41:43.190Z,6.08
2019-03-11T06:42:43.119Z,6.26
2019-03-11T06:43:42.986Z,6.27
2019-03-11T06:44:42.896Z,6.14
2019-03-11T06:45:42.815Z,6.22
2019-03-11T06:46:42.726Z,6.24
2019-03-11T06:47:42.635Z,6.16
2019-03-11T06:48:42.555Z,6.19
2019-03-11T06:49:42.466Z,6.28
2019-03-11T06:50:42.384Z,6.27
2019-03-11T06:51:42.290Z,6.22
2019-03-11T06:52:42.214Z,6.27
2019-03-11T06:53:42.118Z,6.22
2019-03-11T06:54:42.037Z,6.30
2019-03-11T06:55:41.947Z,6.35
2019-03-11T06:56:41.862Z,6.35
2019-03-11T06:57:41.776Z,6.35
2019-03-11T06:58:41.699Z,6.33
2019-03-11T06:59:41.601Z,6.42
2019-03-11T07:00:41.514Z,6.36
2019-03-11T07:01:41.431Z,6.39
2019-03-11T07:02:41.340Z,6.41
2019-03-11T07:03:41.258Z,6.41
2019-03-11T07:04:41.173Z,6.46
2019-03-11T07:05:41.084Z,6.45
2019-03-11T07:06:40.998Z,6.44
2019-03-11T07:07:48.124Z,6.54
2019-03-11T07:09:44.782Z,6.52
2019-03-11T07:10:44.638Z,6.45
2019-03-11T07:12:48.408Z,6.51
2019-03-11T07:13:48.316Z,6.51
2019-03-11T07:14:48.234Z,6.56
2019-03-11T07:15:48.144Z,6.56
2019-03-11T07:16:48.061Z,6.60
2019-03-11T07:17:47.970Z,6.54
2019-03-11T07:18:47.892Z,6.67
2019-03-11T07:19:47.803Z,6.62
2019-03-11T07:20:47.712Z,6.52
2019-03-11T07:21:47.625Z,6.56
2019-03-11T07:22:47.542Z,6.64
2019-03-11T07:23:47.455Z,6.63
2019-03-11T07:24:47.375Z,6.67
2019-03-11T07:25:47.291Z,6.51
2019-03-11T07:26:47.212Z,6.54
2019-03-11T07:27:47.125Z,6.54
2019-03-11T07:28:47.019Z,6.54
2019-03-11T07:29:46.940Z,6.63
2019-03-11T07:30:46.848Z,6.59
2019-03-11T07:31:46.759Z,6.60
2019-03-11T07:32:46.681Z,6.57
2019-03-11T07:33:46.594Z,6.63
2019-03-11T07:34:46.505Z,6.64
2019-03-11T07:35:46.421Z,6.66
2019-03-11T07:36:46.333Z,6.66
2019-03-11T07:37:46.244Z,6.62
2019-03-11T07:38:46.164Z,6.67
2019-03-11T07:39:46.077Z,6.67
2019-03-11T07:40:45.993Z,6.69
2019-03-11T07:41:45.909Z,6.75
2019-03-11T07:42:45.814Z,6.63
2019-03-11T07:43:45.739Z,6.59
2019-03-11T07:44:45.645Z,6.62
2019-03-11T07:45:45.567Z,6.64
2019-03-11T07:46:45.842Z,6.63
2019-03-11T07:47:45.390Z,6.62
2019-03-11T07:48:45.295Z,6.57
2019-03-11T07:49:45.212Z,6.36
2019-03-11T07:50:45.128Z,5.98
2019-03-11T07:51:45.040Z,5.68
2019-03-11T07:52:44.959Z,5.18
2019-03-11T07:53:44.868Z,4.78
2019-03-11T07:54:44.783Z,4.40
2019-03-11T07:55:44.713Z,4.13
2019-03-11T07:56:44.608Z,4.12
2019-03-11T07:57:44.526Z,3.94
2019-03-11T07:58:44.439Z,3.62
2019-03-11T07:59:44.344Z,3.55
2019-03-11T08:00:53.386Z,3.47
2019-03-11T08:01:44.182Z,3.40
2019-03-11T08:02:44.084Z,3.44
2019-03-11T08:03:43.995Z,3.42
2019-03-11T08:04:43.910Z,3.56
2019-03-11T08:05:43.819Z,3.53
2019-03-11T08:06:43.732Z,3.58
2019-03-11T08:07:43.650Z,3.69
2019-03-11T08:08:43.555Z,3.62
2019-03-11T08:09:43.469Z,3.62
2019-03-11T08:10:43.382Z,3.80
2019-03-11T08:11:43.290Z,3.77
2019-03-11T08:12:43.203Z,3.81
2019-03-11T08:13:43.111Z,3.91
2019-03-11T08:14:43.025Z,3.81
2019-03-11T08:15:42.935Z,3.96
2019-03-11T08:16:42.846Z,3.98
2019-03-11T08:17:42.758Z,3.94
2019-03-11T08:18:42.674Z,3.94
2019-03-11T08:19:42.578Z,4.10
2019-03-11T08:20:42.493Z,4.04
2019-03-11T08:21:42.404Z,4.17
2019-03-11T08:22:42.316Z,4.14
2019-03-11T08:23:42.234Z,4.16
2019-03-11T08:24:42.142Z,4.13
2019-03-11T08:25:42.054Z,4.14
2019-03-11T08:26:41.969Z,4.14
2019-03-11T08:27:41.875Z,4.17
2019-03-11T08:28:41.783Z,4.24
2019-03-11T08:29:41.698Z,4.24
2019-03-11T08:30:41.611Z,4.26
2019-03-11T08:31:41.532Z,4.20
2019-03-11T08:32:41.442Z,4.30
2019-03-11T08:33:41.356Z,4.32
2019-03-11T08:34:41.259Z,4.40
2019-03-11T08:35:41.169Z,4.42
2019-03-11T08:36:41.078Z,4.49
2019-03-11T08:37:40.995Z,4.42
2019-03-11T08:38:40.908Z,4.42
2019-03-11T08:39:40.819Z,4.37
2019-03-11T08:40:42.810Z,4.42
2019-03-11T08:41:40.643Z,4.49
2019-03-11T08:42:40.557Z,4.48
2019-03-11T08:43:40.466Z,4.40
2019-03-11T08:44:40.384Z,4.48
2019-03-11T08:45:40.296Z,4.40
2019-03-11T08:46:40.208Z,4.42
2019-03-11T08:47:40.118Z,4.50
2019-03-11T08:48:40.028Z,4.45
2019-03-11T08:49:39.937Z,4.55
2019-03-11T08:50:39.852Z,4.41
2019-03-11T08:51:39.781Z,4.45
2019-03-11T08:52:39.678Z,4.50
2019-03-11T08:53:39.595Z,4.58
2019-03-11T08:54:39.517Z,4.59
2019-03-11T08:55:40.043Z,4.56
2019-03-11T08:56:39.329Z,4.60
2019-03-11T08:57:41.262Z,4.62
2019-03-11T08:58:39.162Z,4.49
2019-03-11T08:59:39.068Z,4.59
2019-03-11T09:00:38.976Z,4.62
2019-03-11T09:01:38.890Z,4.62
2019-03-11T09:02:38.805Z,4.67
2019-03-11T09:03:38.710Z,4.73
2019-03-11T09:04:38.640Z,4.73
2019-03-11T09:05:38.540Z,4.70
2019-03-11T09:06:38.457Z,4.80
2019-03-11T09:07:38.369Z,4.73
2019-03-11T09:08:38.278Z,4.82
2019-03-11T09:09:38.207Z,4.89
2019-03-11T09:10:38.104Z,4.90
2019-03-11T09:11:38.016Z,4.99
2019-03-11T09:12:37.927Z,5.08
2019-03-11T09:13:37.839Z,5.11
2019-03-11T09:14:37.757Z,5.18
2019-03-11T09:15:37.667Z,5.26
2019-03-11T09:16:37.582Z,5.15
2019-03-11T09:17:37.497Z,5.23
2019-03-11T09:18:37.411Z,5.28
2019-03-11T09:19:37.321Z,5.12
2019-03-11T09:20:37.235Z,5.14
2019-03-11T09:21:37.153Z,5.05
2019-03-11T09:22:37.055Z,5.12
2019-03-11T09:23:36.972Z,5.08
2019-03-11T09:24:36.887Z,5.08
2019-03-11T09:25:36.799Z,5.14
2019-03-11T09:26:36.716Z,4.92
2019-03-11T09:27:36.624Z,4.89
2019-03-11T09:28:36.537Z,4.78
2019-03-11T09:29:36.457Z,4.75
2019-03-11T09:30:36.396Z,4.70
2019-03-11T09:31:36.280Z,4.74
2019-03-11T09:32:36.199Z,4.66
2019-03-11T09:33:36.112Z,4.67
2019-03-11T09:34:36.022Z,4.66
2019-03-11T09:35:35.929Z,4.55
2019-03-11T09:36:35.847Z,4.50
2019-03-11T09:37:35.752Z,4.48
2019-03-11T09:38:35.686Z,4.38
2019-03-11T09:39:35.588Z,4.38
2019-03-11T09:40:35.518Z,4.17
2019-03-11T09:41:35.407Z,4.24
2019-03-11T09:42:35.313Z,4.19
2019-03-11T09:43:35.231Z,4.32
2019-03-11T09:44:35.145Z,4.32
2019-03-11T09:45:35.061Z,4.37
2019-03-11T09:46:34.977Z,4.32
2019-03-11T09:47:34.881Z,4.24
2019-03-11T09:48:34.794Z,4.35
2019-03-11T09:49:34.705Z,4.30
2019-03-11T09:50:34.615Z,4.41
2019-03-11T09:51:34.527Z,4.44
2019-03-11T09:52:34.443Z,4.42
2019-03-11T09:53:34.359Z,4.42
2019-03-11T09:54:34.288Z,4.37
2019-03-11T09:55:34.232Z,4.49
2019-03-11T09:56:42.833Z,4.48
2019-03-11T09:57:34.007Z,4.41
2019-03-11T09:58:33.919Z,4.42
2019-03-11T09:59:33.829Z,4.56
2019-03-11T10:00:33.751Z,4.62
2019-03-11T10:01:33.655Z,4.59
2019-03-11T10:02:33.574Z,4.62
2019-03-11T10:03:33.484Z,4.66
2019-03-11T10:04:33.396Z,4.77
2019-03-11T10:05:33.306Z,4.77
2019-03-11T10:06:33.220Z,4.77
2019-03-11T10:07:33.136Z,4.78
2019-03-11T10:08:33.046Z,4.71
2019-03-11T10:09:32.956Z,4.71
2019-03-11T10:10:32.873Z,4.84
2019-03-11T10:11:32.783Z,4.75
2019-03-11T10:12:32.697Z,4.78
2019-03-11T10:13:32.619Z,4.93
2019-03-11T10:14:32.525Z,5.04
2019-03-11T10:15:32.499Z,4.92
2019-03-11T10:16:32.364Z,4.96
2019-03-11T10:17:32.264Z,4.99
2019-03-11T10:18:32.203Z,5.07
2019-03-11T10:19:32.109Z,5.07
2019-03-11T10:20:32.005Z,4.93
2019-03-11T10:21:31.912Z,5.05
2019-03-11T10:22:31.828Z,5.04
2019-03-11T10:23:32.503Z,5.00
2019-03-11T10:24:31.664Z,4.92
2019-03-11T10:25:31.569Z,4.86
2019-03-11T10:26:31.482Z,4.89
2019-03-11T10:27:31.392Z,4.84
2019-03-11T10:28:31.307Z,4.74
2019-03-11T10:29:31.228Z,4.73
2019-03-11T10:30:31.133Z,4.60
2019-03-11T10:31:31.046Z,4.48
2019-03-11T10:32:30.960Z,4.44
2019-03-11T10:33:30.873Z,4.30
2019-03-11T10:34:30.784Z,4.14
2019-03-11T10:35:32.651Z,3.98
2019-03-11T10:36:30.606Z,3.96
2019-03-11T10:37:30.519Z,3.96
2019-03-11T10:38:30.430Z,4.02
2019-03-11T10:39:30.347Z,3.96
2019-03-11T10:40:30.271Z,3.94
2019-03-11T10:41:30.172Z,4.05
2019-03-11T10:42:30.077Z,4.13
2019-03-11T10:43:30.006Z,4.17
2019-03-11T10:44:29.905Z,4.17
2019-03-11T10:45:31.663Z,4.17
2019-03-11T10:46:29.732Z,4.14
2019-03-11T10:47:29.657Z,4.10
2019-03-11T10:48:37.086Z,4.16
2019-03-11T10:49:29.485Z,4.26
2019-03-11T10:50:29.381Z,4.30
2019-03-11T10:51:29.295Z,4.31
2019-03-11T10:52:29.204Z,4.32
2019-03-11T10:53:29.120Z,4.38
2019-03-11T10:54:29.031Z,4.48
2019-03-11T10:55:28.941Z,4.58
2019-03-11T10:56:28.855Z,4.56
2019-03-11T10:57:28.770Z,4.63
2019-03-11T10:58:29.309Z,4.78
2019-03-11T10:59:28.595Z,4.84
2019-03-11T11:00:28.588Z,4.86
2019-03-11T11:01:28.433Z,5.02
2019-03-11T11:02:28.353Z,5.18
2019-03-11T11:03:28.271Z,5.23
2019-03-11T11:04:28.188Z,5.36
2019-03-11T11:05:28.118Z,5.51
2019-03-11T11:06:28.028Z,5.59
2019-03-11T11:07:27.949Z,5.65
2019-03-11T11:08:27.869Z,5.79
2019-03-11T11:09:27.794Z,5.87
2019-03-11T11:10:27.716Z,6.01
2019-03-11T11:11:27.637Z,6.08
2019-03-11T11:12:27.560Z,6.16
2019-03-11T11:13:27.489Z,6.27
2019-03-11T11:14:27.409Z,6.16
2019-03-11T11:15:27.355Z,6.17
2019-03-11T11:16:27.260Z,6.41
2019-03-11T11:17:27.190Z,6.72
2019-03-11T11:18:27.113Z,6.66
2019-03-11T11:19:27.036Z,6.87
2019-03-11T11:20:26.968Z,7.02
2019-03-11T11:21:26.890Z,7.07
2019-03-11T11:22:26.817Z,7.05
2019-03-11T11:23:26.748Z,6.99
2019-03-11T11:24:26.690Z,6.96
2019-03-11T11:25:26.597Z,6.95
2019-03-11T11:26:26.532Z,6.97
2019-03-11T11:27:26.449Z,6.97
2019-03-11T11:28:26.379Z,6.88
2019-03-11T11:29:26.303Z,6.67
2019-03-11T11:30:26.231Z,6.70
2019-03-11T11:31:26.153Z,6.74
2019-03-11T11:32:26.081Z,6.72
2019-03-11T11:33:26.005Z,6.70
2019-03-11T11:34:25.933Z,6.62
2019-03-11T11:35:25.848Z,6.52
2019-03-11T11:36:25.775Z,6.62
2019-03-11T11:37:25.697Z,6.56
2019-03-11T11:38:25.618Z,6.48
2019-03-11T11:39:25.538Z,6.35
2019-03-11T11:40:25.473Z,6.39
2019-03-11T11:41:25.382Z,6.27
2019-03-11T11:42:25.302Z,6.09
2019-03-11T11:43:25.220Z,5.98
2019-03-11T11:44:25.143Z,5.84
2019-03-11T11:45:25.058Z,5.75
2019-03-11T11:46:24.978Z,5.51
2019-03-11T11:47:24.899Z,5.26
2019-03-11T11:48:24.817Z,5.07
2019-03-11T11:49:24.729Z,4.94
2019-03-11T11:50:24.646Z,4.99
2019-03-11T11:51:24.566Z,4.80
2019-03-11T11:52:24.481Z,4.66
2019-03-11T11:53:25.369Z,4.78
2019-03-11T11:54:24.316Z,4.92
2019-03-11T11:55:24.230Z,4.96
2019-03-11T11:56:24.150Z,4.86
2019-03-11T11:57:24.063Z,4.89
2019-03-11T11:58:23.978Z,4.82
2019-03-11T11:59:23.893Z,4.75
2019-03-11T12:00:23.807Z,4.66
2019-03-11T12:01:23.721Z,4.66
2019-03-11T12:02:23.638Z,4.82
2019-03-11T12:03:23.564Z,5.11
2019-03-11T12:04:23.468Z,5.21
2019-03-11T12:05:23.387Z,5.20
2019-03-11T12:06:23.299Z,5.21
2019-03-11T12:07:23.335Z,5.25
2019-03-11T12:08:23.128Z,5.11
2019-03-11T12:09:23.073Z,5.02
2019-03-11T12:10:22.954Z,4.96
2019-03-11T12:11:22.874Z,4.90
2019-03-11T12:12:22.790Z,4.90
2019-03-11T12:13:22.706Z,4.78
2019-03-11T12:14:22.616Z,4.74
2019-03-11T12:15:22.530Z,4.84
2019-03-11T12:16:22.443Z,4.80
2019-03-11T12:17:23.487Z,4.75
2019-03-11T12:18:22.349Z,4.74
2019-03-11T12:19:22.188Z,4.80
2019-03-11T12:20:22.103Z,4.75
2019-03-11T12:21:22.017Z,4.99
2019-03-11T12:22:21.932Z,5.10
2019-03-11T12:23:21.843Z,5.15
2019-03-11T12:24:21.762Z,5.20
2019-03-11T12:25:21.672Z,5.36
2019-03-11T12:26:21.587Z,5.35
2019-03-11T12:27:21.501Z,5.50
2019-03-11T12:28:21.414Z,5.51
2019-03-11T12:29:21.335Z,5.64
2019-03-11T12:30:21.249Z,5.73
2019-03-11T12:31:21.684Z,5.73
2019-03-11T12:32:21.081Z,6.04
2019-03-11T12:33:20.997Z,6.05
2019-03-11T12:34:20.915Z,6.22
2019-03-11T12:35:20.825Z,6.36
2019-03-11T12:36:20.739Z,6.62
2019-03-11T12:37:20.658Z,6.70
2019-03-11T12:38:20.583Z,7.02
2019-03-11T12:39:20.494Z,7.50
2019-03-11T12:40:20.416Z,7.85
2019-03-11T12:41:20.337Z,8.31
2019-03-11T12:42:20.256Z,8.71
2019-03-11T12:43:20.170Z,9.11
2019-03-11T12:44:20.099Z,9.36
2019-03-11T12:45:20.016Z,9.94
2019-03-11T12:46:19.943Z,10.16
2019-03-11T12:47:19.866Z,10.60
2019-03-11T12:48:19.789Z,10.93
2019-03-11T12:49:19.723Z,11.22
2019-03-11T12:50:19.644Z,11.69
2019-03-11T12:51:19.591Z,12.02
2019-03-11T12:52:19.503Z,12.24
2019-03-11T12:53:19.430Z,12.50
2019-03-11T12:54:19.357Z,12.61
2019-03-11T12:55:21.383Z,12.53
2019-03-11T12:56:19.224Z,12.37
2019-03-11T12:57:19.154Z,12.43
2019-03-11T12:58:19.091Z,12.70
2019-03-11T12:59:19.017Z,12.95
2019-03-11T13:00:18.951Z,13.03
2019-03-11T13:01:18.881Z,12.73
2019-03-11T13:02:18.812Z,13.13
2019-03-11T13:03:18.767Z,13.22
2019-03-11T13:04:18.678Z,13.50
2019-03-11T13:05:18.604Z,13.65
2019-03-11T13:06:18.595Z,13.71
2019-03-11T13:07:18.469Z,13.79
2019-03-11T13:08:18.400Z,13.78
2019-03-11T13:09:18.334Z,13.65
2019-03-11T13:10:18.269Z,13.65
2019-03-11T13:11:18.192Z,13.57
2019-03-11T13:12:18.124Z,13.56
2019-03-11T13:13:19.115Z,13.49
2019-03-11T13:14:17.988Z,13.50
2019-03-11T13:15:17.918Z,13.23
2019-03-11T13:16:17.842Z,13.11
2019-03-11T13:17:17.777Z,13.05
2019-03-11T13:18:26.355Z,13.12
2019-03-11T13:20:22.022Z,13.12
2019-03-11T13:21:21.935Z,12.97
2019-03-11T13:23:27.255Z,12.91
2019-03-11T13:24:27.171Z,12.73